Newtown, Pennsylvania
Current Conditions -  °F | °C
As of 12:53 AM on Monday 26 Jan 2015 (Local Time) from KTTN Reporting Station
Light Snow Light Snow  
Wind Chill: 20°   Ceiling: 2300
Heat Index: 28°   Visibility: 3mi
Dew Point: 19°   Wind: 8mph
Humidity: 69%   Direction: 80°E
Pressure: 29.97"   Gusts: NA
Location:  40.23°N, 74.94°W
Report Text: KTTN 260553Z AUTO 08007KT 030V100 3SM -SN OVC023 M02/M07 A2997 RMK AO2 SLP144 P0000 60000 T10221072 10039 21022 50010
Loading
Personal Weather Stations






























Interactive Weather Map New forecast layout! Learn more

10-Day Weather Forecast

Advertisements
Track Severe Weather on mobile